Time;durP1;ratioP1;P1;durP2;ratioP2;P2;SDS_P1;SDS_P2;PMS_P1;PMS_P2;Temp;Humidity;BMP_temperature;BMP_pressure;BME280_temperature;BME280_humidity;BME280_pressure;Samples;Min_cycle;Max_cycle;Signal;HPM_P1;HPM_P2
2021/04/28 00:00:41;;;;;;;6.28;3.72;;;5.20;79.60;;;;;;4944317;28;20031;-86
2021/04/28 00:03:09;;;;;;;6.10;3.65;;;5.10;79.00;;;;;;4970376;28;20035;-87
2021/04/28 00:05:36;;;;;;;6.28;3.33;;;5.10;79.10;;;;;;4979017;28;20043;-86
2021/04/28 00:08:03;;;;;;;7.05;4.45;;;5.10;79.50;;;;;;4944386;28;20069;-86
2021/04/28 00:10:31;;;;;;;7.53;4.38;;;5.00;81.00;;;;;;4960680;28;20030;-87
2021/04/28 00:12:57;;;;;;;7.50;3.85;;;5.00;81.20;;;;;;4972846;28;20054;-87
2021/04/28 00:15:27;;;;;;;5.57;4.18;;;5.00;80.40;;;;;;4987236;28;20039;-86
2021/04/28 00:17:54;;;;;;;6.72;4.10;;;4.90;81.00;;;;;;4960162;28;20130;-87
2021/04/28 00:20:22;;;;;;;6.80;3.78;;;4.90;81.80;;;;;;4962558;28;20035;-87
2021/04/28 00:22:48;;;;;;;6.47;4.00;;;4.80;81.50;;;;;;4960547;28;20113;-87
2021/04/28 00:25:17;;;;;;;8.45;4.28;;;4.80;83.10;;;;;;4956525;28;20131;-86
2021/04/28 00:27:42;;;;;;;11.88;4.50;;;4.80;82.70;;;;;;4970568;28;20171;-87
2021/04/28 00:30:11;;;;;;;6.88;4.32;;;4.80;83.00;;;;;;4974326;28;20477;-87
2021/04/28 00:32:38;;;;;;;6.45;4.10;;;4.70;83.80;;;;;;4981108;28;20035;-87
2021/04/28 00:35:08;;;;;;;8.20;5.03;;;4.70;83.10;;;;;;4965571;28;20035;-89
2021/04/28 00:37:34;;;;;;;6.07;4.30;;;4.70;84.00;;;;;;4965841;28;20034;-86
2021/04/28 00:40:01;;;;;;;6.18;3.83;;;4.70;84.20;;;;;;4973848;28;20405;-86
2021/04/28 00:42:27;;;;;;;8.05;4.10;;;4.70;84.00;;;;;;4981321;28;20049;-86
2021/04/28 00:44:54;;;;;;;8.68;4.25;;;4.70;83.70;;;;;;4985061;28;20494;-88
2021/04/28 00:47:19;;;;;;;8.20;4.05;;;4.70;84.70;;;;;;4963046;28;20046;-87
2021/04/28 00:49:45;;;;;;;6.38;4.30;;;4.70;84.80;;;;;;4948605;28;20019;-86
2021/04/28 00:52:11;;;;;;;6.57;4.18;;;4.70;85.50;;;;;;4947742;28;20450;-86
2021/04/28 00:54:37;;;;;;;6.82;4.20;;;4.60;85.00;;;;;;4965485;28;20085;-88
2021/04/28 00:57:04;;;;;;;9.32;4.00;;;4.60;85.20;;;;;;4962439;28;20039;-86
2021/04/28 00:59:30;;;;;;;8.45;5.25;;;4.60;86.20;;;;;;4961692;28;20055;-88
2021/04/28 01:01:57;;;;;;;7.57;4.97;;;4.60;86.20;;;;;;4975590;28;20113;-86
2021/04/28 01:04:26;;;;;;;8.43;5.45;;;4.60;86.00;;;;;;4960649;28;20037;-86
2021/04/28 01:06:54;;;;;;;8.07;5.30;;;4.50;86.40;;;;;;4933741;28;20429;-85
2021/04/28 01:09:20;;;;;;;8.98;5.38;;;4.50;87.30;;;;;;4962582;28;20027;-87
2021/04/28 01:11:46;;;;;;;10.70;5.85;;;4.60;87.20;;;;;;4967578;28;20030;-88
2021/04/28 01:14:12;;;;;;;7.97;5.15;;;4.50;88.50;;;;;;4962934;28;20027;-87
2021/04/28 01:16:38;;;;;;;6.85;4.93;;;4.60;89.10;;;;;;4948701;28;20049;-88
2021/04/28 01:19:05;;;;;;;8.73;6.07;;;4.50;89.30;;;;;;4963203;28;20031;-88
2021/04/28 01:21:36;;;;;;;9.13;5.82;;;4.50;89.80;;;;;;4962299;28;20131;-86
2021/04/28 01:24:03;;;;;;;9.27;6.18;;;4.50;90.20;;;;;;4979983;28;20529;-87
2021/04/28 01:26:29;;;;;;;10.13;6.22;;;4.50;90.40;;;;;;4963639;28;20035;-87
2021/04/28 01:28:59;;;;;;;8.35;5.53;;;4.50;90.50;;;;;;4931363;28;20050;-86
2021/04/28 01:31:29;;;;;;;8.40;5.35;;;4.50;91.20;;;;;;4964430;28;20023;-89
2021/04/28 01:33:58;;;;;;;10.45;6.18;;;4.40;91.40;;;;;;4964875;28;20027;-87
2021/04/28 01:36:28;;;;;;;9.73;6.03;;;4.40;91.70;;;;;;4987282;28;20024;-88
2021/04/28 01:38:58;;;;;;;10.80;5.90;;;4.40;91.60;;;;;;4988918;28;20066;-87
2021/04/28 01:41:27;;;;;;;7.82;5.38;;;4.40;91.70;;;;;;4970234;28;20030;-86
2021/04/28 01:43:56;;;;;;;9.48;5.28;;;4.40;91.40;;;;;;4977837;28;20038;-87
2021/04/28 01:46:30;;;;;;;7.53;5.25;;;4.40;92.20;;;;;;4931134;28;20035;-89
2021/04/28 01:48:58;;;;;;;9.32;5.50;;;4.40;92.50;;;;;;4988523;28;20026;-87
2021/04/28 01:51:25;;;;;;;8.65;5.82;;;4.30;92.70;;;;;;4961010;28;20031;-86
2021/04/28 01:53:51;;;;;;;13.30;6.70;;;4.30;92.70;;;;;;4963105;28;20028;-88
2021/04/28 01:56:18;;;;;;;9.30;5.75;;;4.30;92.60;;;;;;4948635;28;20039;-88
2021/04/28 01:58:54;;;;;;;6.57;5.13;;;4.30;92.90;;;;;;4962803;28;20045;-88
2021/04/28 02:01:28;;;;;;;12.70;6.07;;;4.30;92.60;;;;;;4964655;28;20027;-88
2021/04/28 02:03:55;;;;;;;10.15;5.50;;;4.30;92.50;;;;;;4987557;28;20046;-88
2021/04/28 02:06:22;;;;;;;10.32;6.05;;;4.30;92.60;;;;;;4980370;28;20078;-87
2021/04/28 02:08:49;;;;;;;12.32;6.22;;;4.30;92.80;;;;;;4963127;28;20114;-86
2021/04/28 02:11:15;;;;;;;9.77;5.82;;;4.30;93.20;;;;;;4966694;28;20034;-87
2021/04/28 02:13:47;;;;;;;9.88;5.85;;;4.20;93.40;;;;;;4969222;28;20042;-87
2021/04/28 02:16:44;;;;;;;10.13;5.93;;;4.20;93.40;;;;;;4980900;28;20034;-87
2021/04/28 02:19:13;;;;;;;10.25;6.00;;;4.20;94.30;;;;;;4961961;28;20039;-88
2021/04/28 02:21:50;;;;;;;10.40;6.13;;;4.20;94.70;;;;;;4976678;28;20020;-89
2021/04/28 02:24:31;;;;;;;10.85;6.00;;;4.30;95.00;;;;;;4965139;28;20509;-87
2021/04/28 02:26:58;;;;;;;9.45;5.47;;;4.30;95.00;;;;;;4948240;28;20037;-87
2021/04/28 02:29:25;;;;;;;10.48;6.22;;;4.20;95.80;;;;;;4963774;28;20030;-88
2021/04/28 02:31:52;;;;;;;8.93;5.60;;;4.20;95.80;;;;;;4961767;28;20553;-87
2021/04/28 02:34:23;;;;;;;9.45;6.03;;;4.10;95.60;;;;;;4963419;28;20023;-88
2021/04/28 02:37:02;;;;;;;10.45;6.57;;;4.00;95.70;;;;;;4963348;28;20039;-87
2021/04/28 02:39:52;;;;;;;9.77;6.55;;;4.00;95.70;;;;;;4968965;28;20410;-87
2021/04/28 02:42:19;;;;;;;9.32;6.07;;;4.00;95.70;;;;;;4962232;28;20181;-87
2021/04/28 02:44:47;;;;;;;10.50;6.57;;;4.00;96.20;;;;;;4979536;28;20169;-87
2021/04/28 02:47:15;;;;;;;7.82;5.05;;;3.90;96.00;;;;;;4962787;28;20062;-86
2021/04/28 02:49:43;;;;;;;8.63;5.53;;;3.90;95.80;;;;;;4960732;28;20028;-87
2021/04/28 02:52:36;;;;;;;13.50;6.43;;;3.90;96.10;;;;;;4967377;28;20114;-88
2021/04/28 02:55:04;;;;;;;11.95;6.35;;;3.90;96.80;;;;;;4953432;28;20027;-87
2021/04/28 02:57:32;;;;;;;13.95;6.45;;;3.90;97.60;;;;;;4988072;28;20038;-87
2021/04/28 02:59:59;;;;;;;9.90;6.03;;;3.90;98.30;;;;;;4987644;28;20054;-87
2021/04/28 03:02:27;;;;;;;11.15;6.55;;;3.80;98.30;;;;;;4960529;28;20837;-87
2021/04/28 03:04:53;;;;;;;12.20;6.53;;;3.90;99.70;;;;;;4960611;28;20042;-88
2021/04/28 03:07:19;;;;;;;10.80;7.15;;;3.90;99.60;;;;;;4964002;28;20552;-88
2021/04/28 03:09:46;;;;;;;13.98;6.30;;;3.80;99.40;;;;;;4980999;28;20632;-86
2021/04/28 03:12:15;;;;;;;14.77;6.13;;;3.80;99.90;;;;;;4947876;28;20031;-87
2021/04/28 03:14:51;;;;;;;9.50;6.18;;;3.80;99.90;;;;;;4971558;28;20030;-88
2021/04/28 03:17:20;;;;;;;8.90;6.25;;;3.90;99.90;;;;;;4979080;28;20058;-89
2021/04/28 03:19:51;;;;;;;10.50;6.65;;;3.80;99.90;;;;;;4961747;28;20036;-86
2021/04/28 03:22:19;;;;;;;10.32;6.05;;;3.80;99.90;;;;;;4962127;28;20037;-87
2021/04/28 03:24:46;;;;;;;10.02;5.88;;;3.70;99.90;;;;;;4961275;28;20118;-86
2021/04/28 03:27:14;;;;;;;12.90;7.20;;;3.70;99.90;;;;;;4974691;28;20041;-88
2021/04/28 03:29:48;;;;;;;;;;;3.60;99.90;;;;;;4971785;28;20023;-87
2021/04/28 03:32:14;;;;;;;;;;;3.60;99.90;;;;;;4963087;28;19930;-86
2021/04/28 03:34:44;;;;;;;10.60;5.55;;;3.60;99.90;;;;;;4966986;28;20407;-86
2021/04/28 03:37:10;;;;;;;9.93;6.03;;;3.50;99.90;;;;;;4961408;28;20394;-86
2021/04/28 03:39:43;;;;;;;11.68;6.88;;;3.50;99.90;;;;;;4948256;28;20114;-89
2021/04/28 03:42:10;;;;;;;11.57;6.55;;;3.50;99.90;;;;;;4961033;28;20119;-88
2021/04/28 03:44:37;;;;;;;11.20;6.60;;;3.50;99.90;;;;;;4963051;28;20089;-88
2021/04/28 03:47:05;;;;;;;9.50;6.20;;;3.50;99.90;;;;;;4960131;28;20141;-88
2021/04/28 03:49:33;;;;;;;12.50;6.22;;;3.40;99.90;;;;;;4962145;28;20101;-86
2021/04/28 03:51:59;;;;;;;10.10;5.78;;;3.40;99.90;;;;;;4959273;28;20556;-88
2021/04/28 03:54:50;;;;;;;10.25;6.72;;;3.40;99.90;;;;;;4978836;28;20023;-88
2021/04/28 03:57:16;;;;;;;10.48;6.05;;;3.40;99.90;;;;;;4944635;28;20031;-87
2021/04/28 03:59:42;;;;;;;8.35;5.82;;;3.30;99.90;;;;;;4960410;28;20039;-87
2021/04/28 04:02:09;;;;;;;9.88;6.50;;;3.30;99.90;;;;;;4962950;28;20027;-89
2021/04/28 04:05:05;;;;;;;8.80;5.85;;;3.30;99.90;;;;;;4998586;28;20050;-87
2021/04/28 04:08:02;;;;;;;9.70;5.90;;;3.30;99.90;;;;;;4962492;28;20073;-86
2021/04/28 04:10:31;;;;;;;9.20;6.35;;;3.30;99.90;;;;;;4990211;28;20485;-88
2021/04/28 04:12:59;;;;;;;10.82;6.53;;;3.20;99.90;;;;;;4981780;28;20498;-87
2021/04/28 04:15:25;;;;;;;11.23;5.93;;;3.20;99.90;;;;;;4964006;28;20035;-87
2021/04/28 04:17:51;;;;;;;11.68;7.07;;;3.20;99.90;;;;;;4932635;28;20031;-86
2021/04/28 04:20:22;;;;;;;10.88;6.28;;;3.20;99.90;;;;;;4959466;28;20082;-88
2021/04/28 04:23:03;;;;;;;10.77;6.60;;;3.20;99.90;;;;;;4971418;28;20035;-86
2021/04/28 04:25:52;;;;;;;9.40;6.15;;;3.20;99.90;;;;;;4978740;28;20071;-88
2021/04/28 04:28:38;;;;;;;9.30;6.15;;;3.20;99.90;;;;;;4961816;28;20043;-87
2021/04/28 04:31:22;;;;;;;11.15;6.35;;;3.20;99.90;;;;;;4951529;28;20042;-87
2021/04/28 04:34:26;;;;;;;12.52;6.95;;;3.20;99.90;;;;;;4981945;28;20077;-87
2021/04/28 04:37:10;;;;;;;12.05;6.88;;;3.30;99.90;;;;;;4971918;28;20086;-88
2021/04/28 04:39:54;;;;;;;9.68;6.50;;;3.40;99.90;;;;;;4975506;28;20050;-85
2021/04/28 04:42:39;;;;;;;10.80;6.50;;;3.40;99.90;;;;;;4965147;28;20118;-87
2021/04/28 04:45:25;;;;;;;13.13;6.90;;;3.50;99.90;;;;;;4970217;28;20031;-87
2021/04/28 04:47:50;;;;;;;11.95;6.43;;;3.50;99.90;;;;;;4968124;28;20587;-87
2021/04/28 04:50:16;;;;;;;14.55;6.90;;;3.40;99.90;;;;;;4928544;29;20065;-87
2021/04/28 04:52:42;;;;;;;12.23;7.38;;;3.50;99.90;;;;;;4948803;28;20027;-87
2021/04/28 04:55:09;;;;;;;13.73;7.28;;;3.50;99.90;;;;;;4949627;28;20024;-87
2021/04/28 04:57:36;;;;;;;12.43;6.40;;;3.60;99.90;;;;;;4963672;28;20030;-89
2021/04/28 05:00:05;;;;;;;10.23;6.38;;;3.60;99.90;;;;;;4965794;28;20039;-86
2021/04/28 05:02:31;;;;;;;12.38;7.32;;;3.70;99.90;;;;;;4963613;28;20061;-86
2021/04/28 05:04:56;;;;;;;9.80;6.43;;;3.70;99.90;;;;;;4948797;28;20505;-87
2021/04/28 05:07:22;;;;;;;9.38;6.82;;;3.80;99.90;;;;;;4979213;28;20034;-87
2021/04/28 05:09:48;;;;;;;10.95;6.93;;;3.90;99.90;;;;;;4964234;28;20038;-87
2021/04/28 05:12:14;;;;;;;10.02;6.75;;;3.90;99.90;;;;;;4964005;28;20537;-89
2021/04/28 05:14:40;;;;;;;10.55;7.15;;;4.00;99.90;;;;;;4963954;28;20035;-87
2021/04/28 05:17:05;;;;;;;11.27;7.43;;;4.10;99.90;;;;;;4947096;28;20042;-88
2021/04/28 05:19:31;;;;;;;11.48;7.00;;;4.20;99.90;;;;;;4963532;28;20042;-88
2021/04/28 05:21:57;;;;;;;13.05;7.32;;;4.30;99.90;;;;;;4961186;28;20049;-88
2021/04/28 05:24:23;;;;;;;11.48;7.13;;;4.40;99.90;;;;;;4948684;28;20146;-87
2021/04/28 05:27:15;;;;;;;15.60;7.38;;;4.50;99.90;;;;;;4966626;28;20039;-86
2021/04/28 05:29:41;;;;;;;13.60;8.15;;;4.70;99.90;;;;;;4965038;28;20035;-87
2021/04/28 05:32:07;;;;;;;14.40;7.60;;;4.90;99.90;;;;;;4966474;28;20030;-87
2021/04/28 05:34:33;;;;;;;9.32;6.28;;;5.30;99.90;;;;;;4986467;28;20510;-87
2021/04/28 05:36:58;;;;;;;13.77;7.25;;;5.70;99.90;;;;;;4970437;28;20489;-87
2021/04/28 05:39:24;;;;;;;14.68;7.70;;;6.10;99.90;;;;;;4970107;28;20051;-87
2021/04/28 05:41:50;;;;;;;14.48;7.80;;;6.40;99.90;;;;;;4964970;28;20069;-86
2021/04/28 05:44:16;;;;;;;12.07;7.65;;;6.90;99.90;;;;;;4934290;28;20054;-87
2021/04/28 05:46:41;;;;;;;13.00;6.90;;;7.30;99.90;;;;;;4964258;28;20485;-86
2021/04/28 05:49:07;;;;;;;13.30;6.95;;;7.70;99.90;;;;;;4962853;28;20031;-87
2021/04/28 05:51:33;;;;;;;12.40;7.22;;;8.20;99.90;;;;;;4930126;28;20142;-86
2021/04/28 05:53:59;;;;;;;12.05;7.60;;;8.50;97.70;;;;;;4932285;28;20022;-86
2021/04/28 05:56:24;;;;;;;10.63;7.10;;;8.80;96.50;;;;;;4964391;28;21359;-86
2021/04/28 05:58:50;;;;;;;11.35;7.05;;;9.10;95.50;;;;;;4981235;28;20042;-86
2021/04/28 06:01:16;;;;;;;14.63;7.35;;;9.30;94.30;;;;;;4961751;28;20041;-88
2021/04/28 06:03:42;;;;;;;12.57;6.90;;;9.60;93.20;;;;;;4961978;28;20030;-87
2021/04/28 06:06:09;;;;;;;16.00;7.80;;;9.90;91.90;;;;;;4947014;28;20367;-88
2021/04/28 06:08:35;;;;;;;13.18;7.10;;;10.10;92.10;;;;;;4962438;28;20433;-87
2021/04/28 06:11:01;;;;;;;15.10;7.72;;;10.20;90.60;;;;;;4963960;28;20109;-88
2021/04/28 06:13:27;;;;;;;12.43;7.10;;;9.90;88.70;;;;;;4970575;28;20490;-86
2021/04/28 06:15:53;;;;;;;12.85;7.90;;;10.20;91.40;;;;;;4972805;28;20174;-88
2021/04/28 06:18:19;;;;;;;9.98;6.93;;;10.30;90.00;;;;;;4987516;28;20471;-90
2021/04/28 06:20:44;;;;;;;16.40;7.20;;;10.60;89.10;;;;;;4998051;28;20029;-88
2021/04/28 06:23:10;;;;;;;11.05;6.70;;;10.70;84.60;;;;;;4966807;28;20058;-86
2021/04/28 06:25:36;;;;;;;11.48;6.85;;;10.70;85.30;;;;;;4971584;28;20113;-88
2021/04/28 06:28:02;;;;;;;10.90;7.10;;;10.80;84.70;;;;;;4971670;28;20057;-88
2021/04/28 06:30:28;;;;;;;11.82;7.40;;;11.10;84.80;;;;;;4968932;28;20049;-90
2021/04/28 06:32:53;;;;;;;12.55;6.80;;;11.40;80.80;;;;;;4987589;28;20494;-91
2021/04/28 06:35:20;;;;;;;13.77;6.93;;;11.50;78.10;;;;;;4964100;28;20034;-89
2021/04/28 06:37:46;;;;;;;18.65;8.45;;;11.50;77.00;;;;;;4958389;28;20121;-88
2021/04/28 06:40:13;;;;;;;11.05;7.05;;;11.70;76.70;;;;;;4971062;28;20130;-89
2021/04/28 06:42:40;;;;;;;13.57;7.65;;;11.80;76.30;;;;;;4983567;28;20439;-89
2021/04/28 06:45:07;;;;;;;13.15;6.43;;;11.90;74.00;;;;;;4972062;28;20030;-88
2021/04/28 06:47:33;;;;;;;12.45;7.30;;;12.20;74.60;;;;;;4986957;28;20052;-86
2021/04/28 06:49:59;;;;;;;11.98;6.63;;;12.50;73.20;;;;;;4987897;28;20446;-87
2021/04/28 06:52:25;;;;;;;11.93;6.88;;;12.50;71.10;;;;;;4970480;28;20027;-88
2021/04/28 06:54:50;;;;;;;10.73;6.40;;;12.70;72.00;;;;;;4955650;28;20065;-89
2021/04/28 06:57:16;;;;;;;11.23;7.05;;;12.60;72.20;;;;;;4995028;28;20101;-93
2021/04/28 06:59:42;;;;;;;9.77;7.53;;;12.70;68.80;;;;;;4974203;28;20083;-90
2021/04/28 07:02:08;;;;;;;12.48;7.00;;;12.80;69.40;;;;;;4966060;28;20057;-90
2021/04/28 07:04:34;;;;;;;10.38;6.82;;;13.20;69.60;;;;;;4945975;28;20062;-92
2021/04/28 07:07:02;;;;;;;14.10;6.93;;;13.20;70.30;;;;;;4970046;28;20518;-91
2021/04/28 07:09:28;;;;;;;12.68;7.47;;;13.30;69.60;;;;;;4975639;28;20034;-88
2021/04/28 07:11:53;;;;;;;12.85;7.25;;;13.40;67.50;;;;;;4954203;28;20071;-91
2021/04/28 07:14:19;;;;;;;11.20;6.95;;;13.60;66.80;;;;;;4969566;28;20542;-88
2021/04/28 07:16:45;;;;;;;10.57;7.22;;;13.60;63.80;;;;;;4993621;28;20065;-90
2021/04/28 07:19:11;;;;;;;10.35;6.80;;;13.80;68.80;;;;;;4973086;28;20084;-90
2021/04/28 07:21:37;;;;;;;12.38;7.15;;;13.90;62.60;;;;;;4984951;28;20470;-92
2021/04/28 07:24:04;;;;;;;10.43;6.60;;;13.70;64.10;;;;;;4971495;28;20022;-88
2021/04/28 07:26:31;;;;;;;11.85;7.93;;;13.50;63.90;;;;;;4967602;28;20092;-91
2021/04/28 07:28:57;;;;;;;10.50;7.20;;;13.40;68.70;;;;;;4967309;28;20026;-92
2021/04/28 07:31:23;;;;;;;9.07;7.00;;;13.70;65.80;;;;;;4960736;28;20118;-91
2021/04/28 07:33:49;;;;;;;11.07;7.03;;;13.90;65.30;;;;;;4963652;28;20019;-92
2021/04/28 07:36:16;;;;;;;13.05;6.78;;;14.30;66.30;;;;;;4967350;28;20031;-89
2021/04/28 07:38:42;;;;;;;11.32;7.00;;;14.30;61.20;;;;;;4969271;28;20114;-88
2021/04/28 07:41:08;;;;;;;12.70;7.55;;;14.50;63.70;;;;;;4967586;28;20134;-89
2021/04/28 07:43:34;;;;;;;11.45;7.00;;;14.70;63.60;;;;;;4986887;28;20042;-87
2021/04/28 07:45:59;;;;;;;9.82;6.43;;;14.80;60.20;;;;;;4969079;28;20042;-90
2021/04/28 07:48:26;;;;;;;10.93;6.80;;;14.70;60.40;;;;;;4967116;28;20031;-87
2021/04/28 07:50:52;;;;;;;13.25;7.78;;;14.50;60.90;;;;;;4979897;28;20114;-91
2021/04/28 07:53:18;;;;;;;12.43;6.43;;;14.40;63.50;;;;;;4964239;28;20073;-89
2021/04/28 07:55:46;;;;;;;11.27;7.30;;;14.50;61.40;;;;;;4962361;28;20617;-89
2021/04/28 07:58:16;;;;;;;12.25;7.65;;;14.60;63.40;;;;;;4963463;28;20031;-87
2021/04/28 08:00:42;;;;;;;13.75;7.45;;;14.70;59.70;;;;;;4980044;28;20505;-88
2021/04/28 08:03:08;;;;;;;10.45;6.32;;;14.80;62.70;;;;;;4982386;28;20058;-90
2021/04/28 08:05:34;;;;;;;12.82;6.80;;;14.70;59.50;;;;;;4973566;28;20059;-87
2021/04/28 08:08:00;;;;;;;11.00;7.20;;;14.60;60.00;;;;;;4966200;28;20035;-89
2021/04/28 08:10:29;;;;;;;12.05;6.45;;;14.50;62.90;;;;;;4981929;28;20126;-92
2021/04/28 08:12:55;;;;;;;12.20;7.00;;;14.50;60.00;;;;;;4965269;28;20027;-90
2021/04/28 08:15:21;;;;;;;9.63;6.35;;;14.40;60.00;;;;;;4981162;28;20129;-89
2021/04/28 08:17:47;;;;;;;11.30;6.97;;;14.20;61.60;;;;;;4965125;28;20042;-90
2021/04/28 08:20:14;;;;;;;11.00;6.85;;;14.20;62.70;;;;;;4981794;28;20092;-89
2021/04/28 08:22:40;;;;;;;9.85;6.28;;;14.20;63.00;;;;;;4979990;28;20070;-90
2021/04/28 08:25:09;;;;;;;11.98;7.45;;;14.20;61.30;;;;;;4978290;28;20038;-89
2021/04/28 08:27:35;;;;;;;8.65;6.53;;;14.20;61.10;;;;;;4980325;28;20035;-92
2021/04/28 08:30:02;;;;;;;11.02;7.05;;;14.30;61.00;;;;;;4983737;28;20019;-91
2021/04/28 08:32:28;;;;;;;11.05;6.88;;;14.50;60.10;;;;;;4983929;28;20062;-93
2021/04/28 08:34:55;;;;;;;11.55;6.30;;;14.60;61.50;;;;;;4978223;28;20054;-89
2021/04/28 08:37:20;;;;;;;11.25;6.63;;;14.60;58.40;;;;;;4986014;28;20032;-88
2021/04/28 08:39:47;;;;;;;10.23;6.78;;;14.70;59.50;;;;;;4962745;28;20046;-90
2021/04/28 08:42:20;;;;;;;12.30;6.78;;;14.70;58.60;;;;;;4960059;28;20035;-90
2021/04/28 08:44:46;;;;;;;10.05;6.30;;;14.70;59.20;;;;;;4971201;28;20060;-91
2021/04/28 08:47:13;;;;;;;9.70;6.10;;;14.60;59.80;;;;;;4961751;28;20237;-90
2021/04/28 08:49:39;;;;;;;9.95;6.03;;;14.60;59.50;;;;;;4963624;28;20042;-89
2021/04/28 08:52:05;;;;;;;11.05;5.88;;;14.50;59.00;;;;;;4978147;28;20022;-90
2021/04/28 08:54:31;;;;;;;10.25;6.80;;;14.50;58.50;;;;;;4965332;28;20019;-92
2021/04/28 08:56:58;;;;;;;10.00;6.35;;;14.50;58.20;;;;;;4966165;28;20051;-88
2021/04/28 08:59:25;;;;;;;9.02;5.72;;;14.40;59.40;;;;;;4979536;28;20063;-90
2021/04/28 09:01:51;;;;;;;9.43;6.30;;;14.50;59.10;;;;;;4965705;28;20091;-87
2021/04/28 09:04:24;;;;;;;11.25;6.70;;;14.50;58.10;;;;;;4963643;28;20031;-91
2021/04/28 09:06:52;;;;;;;10.68;6.38;;;14.60;58.20;;;;;;4961890;28;20046;-92
2021/04/28 09:09:19;;;;;;;11.02;6.47;;;14.60;58.00;;;;;;4966228;28;20026;-89
2021/04/28 09:11:46;;;;;;;10.52;6.35;;;14.60;57.80;;;;;;4989111;28;20110;-90
2021/04/28 09:14:20;;;;;;;11.10;6.75;;;14.60;57.80;;;;;;4988814;28;20496;-90
2021/04/28 09:17:07;;;;;;;8.23;5.65;;;14.60;58.50;;;;;;4981677;28;20574;-88
2021/04/28 09:20:37;;;;;;;9.02;5.85;;;14.70;58.60;;;;;;4978909;28;20039;-88
2021/04/28 09:23:34;;;;;;;11.75;5.97;;;14.70;57.30;;;;;;4963824;28;20394;-90
2021/04/28 09:26:18;;;;;;;10.13;6.47;;;14.70;58.60;;;;;;4993848;28;20126;-88
2021/04/28 09:29:02;;;;;;;11.52;6.45;;;14.60;59.80;;;;;;4979268;28;20146;-88
2021/04/28 09:31:29;;;;;;;9.27;5.93;;;14.70;58.30;;;;;;4963761;28;20030;-89
2021/04/28 09:33:59;;;;;;;10.00;5.80;;;14.70;58.40;;;;;;4945630;28;20069;-90
2021/04/28 09:36:34;;;;;;;10.85;6.47;;;14.80;59.20;;;;;;4969709;28;20058;-89
2021/04/28 09:39:08;;;;;;;10.35;6.65;;;15.00;56.70;;;;;;4973221;28;20035;-90
2021/04/28 09:41:42;;;;;;;9.02;6.03;;;15.00;56.60;;;;;;4973015;28;20082;-88
2021/04/28 09:44:34;;;;;;;9.25;6.10;;;15.00;58.00;;;;;;4973332;28;20450;-88
2021/04/28 09:47:11;;;;;;;16.05;6.28;;;15.10;58.80;;;;;;4983793;28;20046;-89
2021/04/28 09:49:49;;;;;;;11.02;6.88;;;15.20;59.50;;;;;;4968169;28;20557;-87
2021/04/28 09:52:19;;;;;;;12.30;6.82;;;15.30;58.30;;;;;;4981993;28;20031;-88
2021/04/28 09:54:47;;;;;;;10.27;6.68;;;15.40;57.40;;;;;;4964692;28;20031;-87
2021/04/28 09:57:18;;;;;;;10.85;6.97;;;15.40;57.50;;;;;;4963521;28;20031;-91
2021/04/28 09:59:51;;;;;;;8.57;6.05;;;15.40;58.40;;;;;;4975642;28;20106;-90
2021/04/28 10:02:29;;;;;;;12.88;7.25;;;15.50;58.80;;;;;;4963455;28;20027;-90
2021/04/28 10:05:15;;;;;;;10.38;6.63;;;15.50;58.70;;;;;;4966074;28;20035;-88
2021/04/28 10:07:41;;;;;;;8.90;6.40;;;15.50;55.90;;;;;;4983395;28;20383;-89
2021/04/28 10:10:07;;;;;;;8.57;6.00;;;15.40;57.70;;;;;;4988887;28;20082;-87
2021/04/28 10:12:33;;;;;;;10.05;6.18;;;15.50;57.50;;;;;;4955723;28;20508;-88
2021/04/28 10:14:59;;;;;;;7.93;5.15;;;15.60;56.00;;;;;;4964514;28;20035;-88
2021/04/28 10:17:25;;;;;;;11.60;6.30;;;15.60;56.30;;;;;;4961435;28;20031;-89
2021/04/28 10:19:52;;;;;;;10.88;5.70;;;15.70;55.60;;;;;;4961436;28;20034;-89
2021/04/28 10:22:19;;;;;;;10.43;5.45;;;15.70;54.10;;;;;;4962845;28;20031;-89
2021/04/28 10:24:49;;;;;;;7.60;5.10;;;15.70;55.90;;;;;;4960541;28;20042;-87
2021/04/28 10:27:17;;;;;;;12.88;5.40;;;15.70;52.80;;;;;;4964555;28;20030;-90
2021/04/28 10:29:47;;;;;;;9.20;5.90;;;15.60;54.10;;;;;;4959748;28;20031;-89
2021/04/28 10:32:15;;;;;;;7.40;5.38;;;15.70;54.60;;;;;;4977833;28;20031;-89
2021/04/28 10:34:58;;;;;;;16.50;7.80;;;15.70;54.10;;;;;;4959822;28;20070;-88
2021/04/28 10:37:31;;;;;;;8.80;5.68;;;15.70;53.30;;;;;;4970115;28;20062;-89
2021/04/28 10:39:57;;;;;;;9.13;5.50;;;15.70;53.10;;;;;;4980550;28;20035;-88
2021/04/28 10:42:36;;;;;;;8.85;5.40;;;15.60;55.80;;;;;;4942352;28;20028;-89
2021/04/28 10:45:11;;;;;;;10.55;5.50;;;15.70;54.10;;;;;;4961486;28;20023;-88
2021/04/28 10:47:40;;;;;;;10.93;6.03;;;15.90;53.70;;;;;;4958160;28;20035;-88
2021/04/28 10:50:23;;;;;;;9.35;4.95;;;16.00;55.10;;;;;;4960741;28;20526;-91
2021/04/28 10:52:59;;;;;;;11.60;5.95;;;16.00;52.50;;;;;;4972128;28;20405;-90
2021/04/28 10:55:46;;;;;;;6.68;4.93;;;16.20;54.30;;;;;;4960754;28;20109;-87
2021/04/28 10:58:31;;;;;;;10.57;5.63;;;16.20;51.10;;;;;;4963967;28;20462;-89
2021/04/28 11:01:05;;;;;;;8.82;5.03;;;16.20;50.80;;;;;;4975771;28;20035;-88
2021/04/28 11:03:33;;;;;;;8.32;5.45;;;16.20;49.90;;;;;;4988219;28;20106;-87
2021/04/28 11:06:24;;;;;;;7.18;4.95;;;16.10;51.10;;;;;;4987741;28;20037;-88
2021/04/28 11:08:55;;;;;;;6.57;4.65;;;16.10;52.30;;;;;;4980188;28;20166;-87
2021/04/28 11:11:33;;;;;;;11.35;4.82;;;16.20;51.20;;;;;;4986682;28;20110;-89
2021/04/28 11:14:08;;;;;;;7.57;4.50;;;16.30;52.30;;;;;;4963934;28;20069;-88
2021/04/28 11:16:55;;;;;;;6.55;5.35;;;16.40;49.20;;;;;;4980098;28;20027;-88
2021/04/28 11:19:23;;;;;;;8.98;5.25;;;16.50;49.00;;;;;;4989572;28;20089;-90
2021/04/28 11:22:11;;;;;;;8.43;4.93;;;16.50;50.40;;;;;;4984225;28;20047;-88
2021/04/28 11:25:03;;;;;;;7.13;4.50;;;16.60;48.30;;;;;;4987682;28;20030;-87
2021/04/28 11:28:02;;;;;;;9.32;4.65;;;16.60;47.50;;;;;;4979331;28;20062;-91
2021/04/28 11:30:40;;;;;;;9.70;4.97;;;16.60;49.40;;;;;;4974509;28;20031;-90
2021/04/28 11:33:27;;;;;;;8.55;4.65;;;16.70;46.90;;;;;;4963405;28;20414;-89
2021/04/28 11:35:53;;;;;;;8.20;4.25;;;16.80;50.40;;;;;;4962002;28;20027;-92
2021/04/28 11:38:23;;;;;;;7.90;4.32;;;17.00;50.20;;;;;;4988004;28;20038;-87
2021/04/28 11:41:10;;;;;;;6.03;4.15;;;17.10;46.40;;;;;;4962715;28;20027;-87
2021/04/28 11:43:39;;;;;;;6.65;3.72;;;17.30;46.80;;;;;;4980512;28;20035;-89
2021/04/28 11:46:32;;;;;;;7.00;4.28;;;17.40;46.90;;;;;;4963157;28;20507;-87
2021/04/28 11:48:59;;;;;;;5.68;4.22;;;17.50;44.30;;;;;;4972392;28;20035;-88
2021/04/28 11:51:30;;;;;;;7.65;4.18;;;17.70;43.60;;;;;;4960474;28;20023;-88
2021/04/28 11:54:09;;;;;;;5.45;4.18;;;17.70;45.20;;;;;;4961487;28;20130;-87
2021/04/28 11:56:45;;;;;;;5.78;3.92;;;17.80;42.40;;;;;;4971264;28;20066;-89
2021/04/28 11:59:19;;;;;;;7.20;4.07;;;17.90;44.40;;;;;;4979053;28;20035;-89
2021/04/28 12:01:45;;;;;;;6.43;4.00;;;18.20;47.40;;;;;;4958883;28;20030;-87
2021/04/28 12:04:12;;;;;;;4.90;4.00;;;18.30;46.50;;;;;;4964284;28;20508;-85
2021/04/28 12:06:48;;;;;;;6.50;4.22;;;18.50;46.00;;;;;;4947671;28;20479;-90
2021/04/28 12:09:40;;;;;;;6.68;4.30;;;18.60;43.10;;;;;;4979378;28;20402;-90
2021/04/28 12:12:06;;;;;;;6.40;4.40;;;18.20;41.40;;;;;;4983043;28;20030;-91
2021/04/28 12:14:32;;;;;;;7.82;4.10;;;18.20;42.80;;;;;;4987233;28;20105;-90
2021/04/28 12:16:58;;;;;;;6.30;3.95;;;18.10;42.50;;;;;;4965429;28;20035;-89
2021/04/28 12:19:25;;;;;;;6.60;4.05;;;18.10;42.10;;;;;;4978664;28;20480;-90
2021/04/28 12:21:55;;;;;;;7.28;3.95;;;18.10;42.90;;;;;;4958930;28;20483;-90
2021/04/28 12:24:35;;;;;;;7.72;4.40;;;18.10;43.10;;;;;;4972688;28;20027;-90
2021/04/28 12:27:16;;;;;;;7.90;4.03;;;18.00;42.60;;;;;;4975071;28;20122;-90
2021/04/28 12:29:45;;;;;;;7.70;4.10;;;18.00;43.60;;;;;;4988242;28;20094;-88
2021/04/28 12:32:12;;;;;;;6.75;3.83;;;18.20;42.70;;;;;;4951093;28;20406;-88
2021/04/28 12:34:41;;;;;;;7.80;4.30;;;18.30;42.30;;;;;;4963115;28;20023;-89
2021/04/28 12:37:14;;;;;;;6.95;3.92;;;18.50;42.30;;;;;;4964345;28;20030;-90
2021/04/28 12:39:41;;;;;;;7.53;4.38;;;18.70;44.30;;;;;;4969888;28;20134;-91
2021/04/28 12:42:07;;;;;;;6.45;4.35;;;18.70;40.70;;;;;;4962549;28;20469;-88
2021/04/28 12:44:36;;;;;;;7.90;4.50;;;18.70;41.90;;;;;;4965791;28;20070;-88
2021/04/28 12:47:02;;;;;;;7.47;3.95;;;18.80;40.80;;;;;;4946618;28;20070;-88
2021/04/28 12:49:28;;;;;;;6.90;4.43;;;19.10;43.60;;;;;;4964887;28;20401;-88
2021/04/28 12:51:57;;;;;;;7.03;4.22;;;19.40;38.70;;;;;;4963517;28;20031;-87
2021/04/28 12:54:33;;;;;;;6.63;4.25;;;19.50;40.60;;;;;;4948037;28;20032;-89
2021/04/28 12:57:03;;;;;;;9.05;4.82;;;19.40;40.00;;;;;;4963253;28;20038;-88
2021/04/28 12:59:30;;;;;;;7.35;4.78;;;19.40;40.10;;;;;;4971641;28;20170;-90
2021/04/28 13:02:04;;;;;;;7.78;4.32;;;19.40;40.30;;;;;;4988940;28;20453;-88